Latest Weather Observations for Amberley

IDQ60801

Issued at 12:05 pm EST Saturday 30 August 2014 (issued every 30 minutes, with the page automatically refreshed every 10 minutes)

About weather observations | Map of weather stations | Latest weather observations for QLD | Other Formats
Station Details ID: 040004 Name: AMBERLEY AMO Lat: -27.63 Lon: 152.71 Height: 24.2 m
Data from the previous 72 hours. | See also: Recent months at Amberley
Date/Time
EST
Temp
°C
App
Temp
°C
Dew
Point
Rel
Hum
%
Delta-T
°C
Wind Press
QNH
hPa
Press
MSL
hPa
Rain
since 9 am
mm
Dir
 
Spd
km/h
Gust
km/h
Spd
kts
Gust
kts
30/12:00pm 22.1 18.3 6.0 35 8.1 SW 15 26 8 14 1018.2 1018.2 0.0
30/11:30am 20.9 17.5 6.1 38 7.4 S 13 20 7 11 1018.7 - 0.0
30/11:00am 20.6 18.0 6.2 39 7.2 WSW 9 13 5 7 1019.2 - 0.0
30/10:30am 19.3 17.1 8.0 48 5.8 WNW 9 15 5 8 1019.7 - 0.0
30/10:00am 18.0 16.3 7.7 51 5.2 NW 6 13 3 7 1019.9 - 0.0
30/09:30am 16.1 14.3 7.9 58 4.1 WSW 7 11 4 6 1020.4 - 0.0
30/09:00am 14.7 13.8 7.9 63 3.4 S 2 7 1 4 1020.7 1020.8 0.0
30/08:30am 12.8 11.2 7.9 72 2.4 WNW 6 7 3 4 1020.7 - 0.0
30/08:00am 10.6 9.8 8.3 86 1.1 NW 2 7 1 4 1020.9 - 0.0
30/07:30am 8.7 8.1 7.6 93 0.5 CALM 0 0 0 0 1020.8 - 0.0
30/07:15am 7.7 7.0 6.8 94 0.4 CALM 0 0 0 0 1020.7 - 0.0
30/07:00am 5.6 4.1 4.9 95 0.3 WNW 2 7 1 4 1020.7 - 0.0
30/06:30am 3.2 1.3 2.7 96 0.2 SW 2 7 1 4 1020.5 - 0.0
30/06:26am 3.1 0.4 2.8 98 0.1 SW 6 7 3 4 1020.4 - 0.0
30/06:17am 4.3 2.5 3.6 95 0.3 WNW 2 7 1 4 1020.3 - 0.0
30/06:00am 4.1 2.7 3.6 97 0.2 NNW 0 0 0 0 1020.0 1020.1 0.0
30/05:54am 4.2 2.8 3.7 97 0.2 CALM 0 0 0 0 1020.0 - 0.0
30/05:30am 4.8 3.5 4.3 97 0.2 CALM 0 4 0 2 1019.6 - 0.0
30/05:19am 5.0 2.4 4.3 95 0.3 NNW 7 9 4 5 1019.4 - 0.0
30/05:00am 4.2 2.8 3.7 97 0.2 CALM 0 0 0 0 1019.4 - 0.0
30/04:30am 4.0 2.6 3.8 99 0.1 CALM 0 0 0 0 1019.4 - 0.0
30/04:22am 4.3 2.9 3.8 97 0.2 CALM 0 0 0 0 1019.4 - 0.0
30/04:00am 5.5 3.2 4.8 95 0.3 SSW 6 7 3 4 1019.4 - 0.0
30/03:30am 5.9 3.5 5.2 95 0.3 SSW 7 9 4 5 1019.4 - 0.0
30/03:00am 5.5 4.3 4.8 95 0.3 WNW 0 0 0 0 1019.3 1019.3 0.0
30/02:30am 6.3 5.3 5.6 95 0.3 CALM 0 0 0 0 1019.5 - 0.0
30/02:00am 5.8 4.7 5.3 97 0.2 CALM 0 0 0 0 1019.6 - 0.0
30/01:30am 7.3 6.5 6.6 95 0.3 CALM 0 0 0 0 1019.9 - 0.0
30/01:00am 6.2 4.5 5.7 97 0.2 NNW 4 9 2 5 1020.0 - 0.0
30/12:30am 7.6 6.8 6.7 94 0.4 CALM 0 0 0 0 1020.2 - 0.0
30/12:00am 8.1 7.4 6.8 91 0.6 NNW 0 0 0 0 1020.1 1020.2 0.0
 
Date/Time
EST
Temp
°C
App
Temp
°C
Dew
Point
Rel
Hum
%
Delta-T
°C
Wind Press
QNH
hPa
Press
MSL
hPa
Rain
since 9 am
mm
Dir
 
Spd
km/h
Gust
km/h
Spd
kts
Gust
kts
29/11:30pm 8.9 8.0 7.8 93 0.5 NNW 2 6 1 3 1020.3 - 0.0
29/11:00pm 8.4 7.3 7.1 91 0.6 S 2 6 1 3 1020.5 - 0.0
29/10:30pm 10.2 9.8 8.1 87 1.0 CALM 0 0 0 0 1020.4 - 0.0
29/10:00pm 10.1 9.6 7.8 86 1.1 CALM 0 0 0 0 1020.5 - 0.0
29/09:30pm 11.2 10.7 7.7 79 1.7 CALM 0 0 0 0 1020.5 - 0.0
29/09:00pm 13.9 12.8 8.5 70 2.7 S 4 7 2 4 1020.5 1020.6 0.0
29/08:30pm 13.8 11.9 7.7 66 3.0 SSE 7 9 4 5 1020.4 - 0.0
29/08:00pm 15.8 12.8 7.8 59 4.0 NE 13 15 7 8 1020.2 - 0.0
29/07:30pm 16.2 13.2 7.8 57 4.2 ENE 13 19 7 10 1020.1 - 0.0
29/07:00pm 16.8 13.0 7.6 54 4.6 ENE 17 20 9 11 1020.0 - 0.0
29/06:30pm 17.6 13.2 7.4 51 5.1 ENE 20 28 11 15 1019.8 - 0.0
29/06:00pm 18.4 13.5 6.8 46 5.8 ENE 22 30 12 16 1019.4 1019.4 0.0
29/05:30pm 19.7 17.2 4.5 36 7.3 ENE 7 7 4 4 1019.0 - 0.0
29/05:00pm 21.1 18.4 3.5 31 8.4 E 7 11 4 6 1018.6 - 0.0
29/04:30pm 21.7 19.4 2.6 28 9.0 S 4 15 2 8 1018.5 - 0.0
29/04:00pm 22.0 19.1 2.8 28 9.1 SW 7 13 4 7 1018.4 - 0.0
29/03:30pm 22.8 19.5 2.2 26 9.7 ENE 9 15 5 8 1018.4 - 0.0
29/03:00pm 22.1 18.8 2.6 27 9.2 W 9 15 5 8 1018.6 1018.6 0.0
29/02:30pm 22.1 18.7 1.6 26 9.5 SSE 9 15 5 8 1018.7 - 0.0
29/02:00pm 22.3 18.2 2.3 26 9.4 S 13 26 7 14 1019.2 - 0.0
29/01:30pm 22.2 18.7 1.0 24 9.7 W 9 15 5 8 1019.6 - 0.0
29/01:00pm 21.8 17.1 0.6 24 9.6 SSW 15 20 8 11 1020.0 - 0.0
29/12:30pm 21.7 17.4 0.8 25 9.5 SW 13 24 7 13 1020.4 - 0.0
29/12:00pm 21.3 16.7 1.8 27 9.0 SSW 15 28 8 15 1021.1 1021.2 0.0
29/11:30am 20.9 16.8 2.1 28 8.7 S 13 20 7 11 1021.5 - 0.0
29/11:00am 20.9 16.0 2.1 28 8.7 S 17 24 9 13 1022.0 - 0.0
29/10:30am 19.5 15.5 2.6 32 7.8 SSE 13 24 7 13 1022.5 - 0.0
29/10:00am 19.3 15.7 4.8 38 7.0 SSE 13 22 7 12 1022.9 - 0.0
29/09:30am 17.9 15.0 4.9 42 6.2 SW 9 17 5 9 1023.3 - 0.0
29/09:00am 16.9 13.8 5.7 47 5.4 SSW 11 19 6 10 1023.4 1023.5 0.2
29/08:30am 15.8 13.4 7.1 56 4.3 W 9 13 5 7 1023.4 - 0.2
29/08:00am 13.3 11.9 8.9 74 2.2 WNW 6 9 3 5 1023.4 - 0.2
29/07:30am 11.4 9.8 8.6 83 1.4 W 7 9 4 5 1023.1 - 0.2
29/07:00am 8.9 7.1 7.8 93 0.5 NW 7 9 4 5 1022.8 - 0.2
29/06:30am 6.2 5.2 5.7 97 0.2 CALM 0 4 0 2 1022.5 - 0.2
29/06:00am 5.6 3.3 4.9 95 0.3 N 6 9 3 5 1022.2 1022.3 0.2
29/05:30am 6.1 3.9 5.4 95 0.3 NW 6 9 3 5 1022.0 - 0.2
29/05:00am 5.5 2.6 4.8 95 0.3 NW 9 11 5 6 1021.7 - 0.2
29/04:30am 6.4 3.7 5.5 94 0.4 NW 9 13 5 7 1021.5 - 0.2
29/04:00am 7.6 5.6 7.2 97 0.2 NW 7 9 4 5 1021.4 - 0.2
29/03:30am 6.4 3.7 5.5 94 0.4 NW 9 11 5 6 1021.4 - 0.2
29/03:00am 7.4 6.6 6.5 94 0.4 CALM 0 6 0 3 1021.4 1021.5 0.2
29/02:30am 6.4 4.2 5.5 94 0.4 SSW 6 7 3 4 1021.6 - 0.2
29/02:00am 7.6 5.7 6.7 94 0.4 S 6 9 3 5 1021.5 - 0.2
29/01:30am 7.7 5.6 6.6 93 0.5 WNW 7 11 4 6 1021.8 - 0.2
29/01:00am 8.2 5.8 7.1 93 0.5 NW 9 11 5 6 1022.1 - 0.2
29/12:30am 8.0 6.9 6.9 93 0.5 NNE 2 7 1 4 1022.0 - 0.2
29/12:00am 8.4 6.6 7.1 91 0.6 NNW 6 9 3 5 1022.1 1022.2 0.2
 
Date/Time
EST
Temp
°C
App
Temp
°C
Dew
Point
Rel
Hum
%
Delta-T
°C
Wind Press
QNH
hPa
Press
MSL
hPa
Rain
since 9 am
mm
Dir
 
Spd
km/h
Gust
km/h
Spd
kts
Gust
kts
28/11:30pm 8.7 6.7 7.0 89 0.8 W 7 9 4 5 1022.0 - 0.2
28/11:00pm 9.4 7.6 7.1 85 1.1 W 6 9 3 5 1022.0 - 0.2
28/10:30pm 11.9 10.3 8.0 77 1.9 SSW 6 7 3 4 1022.0 - 0.2
28/10:00pm 12.0 9.4 7.9 76 2.0 SSW 11 11 6 6 1021.9 - 0.2
28/09:30pm 12.6 9.6 7.9 73 2.3 SSE 13 19 7 10 1022.2 - 0.2
28/09:00pm 13.3 10.8 8.0 70 2.6 SE 11 11 6 6 1022.2 1022.3 0.2
28/08:30pm 14.4 12.5 7.5 63 3.4 S 7 9 4 5 1022.1 - 0.2
28/08:00pm 15.2 11.8 7.5 60 3.8 SSE 15 19 8 10 1022.1 - 0.2
28/07:30pm 16.7 11.1 7.0 52 4.8 SSE 26 32 14 17 1021.9 - 0.2
28/07:00pm 17.3 12.2 7.8 53 4.8 SSE 24 37 13 20 1021.4 - 0.2
28/06:30pm 16.0 12.5 7.3 56 4.3 S 15 26 8 14 1020.8 - 0.2
28/06:00pm 15.5 12.3 6.7 55 4.3 SSE 13 17 7 9 1020.2 1020.3 0.2
28/05:30pm 18.2 13.1 5.9 44 6.0 S 22 33 12 18 1019.9 - 0.2
28/05:00pm 19.6 12.6 5.8 40 6.8 SSE 32 39 17 21 1019.4 - 0.2
28/04:30pm 20.0 13.3 7.5 44 6.4 S 32 44 17 24 1018.9 - 0.2
28/03:52pm 21.9 14.9 6.8 37 7.7 S 33 54 18 29 1018.2 - 0.2
28/03:30pm 22.1 16.4 6.6 36 7.9 S 26 32 14 17 1017.9 - 0.2
28/03:00pm 21.6 14.6 6.9 38 7.5 S 33 41 18 22 1017.7 1017.7 0.2
28/02:42pm 23.0 16.3 7.2 36 8.2 SSE 32 50 17 27 1017.6 - 0.2
28/02:30pm 23.4 16.8 6.1 32 8.8 SSE 30 39 16 21 1017.5 - 0.2
28/02:00pm 23.0 16.1 6.6 34 8.4 S 32 41 17 22 1017.3 - 0.2
28/01:34pm 23.3 16.4 6.5 34 8.6 S 32 54 17 29 1017.1 - 0.2
28/01:30pm 22.5 15.5 5.8 34 8.4 SSE 32 41 17 22 1017.0 - 0.2
28/01:00pm 22.9 14.9 5.6 32 8.7 S 37 50 20 27 1017.0 - 0.0
28/12:36pm 23.1 15.4 5.3 31 8.9 S 35 39 19 21 1016.9 - 0.0
28/12:30pm 23.0 14.6 5.5 32 8.8 SE 39 52 21 28 1017.0 - 0.0
28/12:00pm 22.5 14.2 6.1 34 8.3 S 39 54 21 29 1017.0 1017.0 0.0
28/11:30am 21.4 14.7 7.4 40 7.2 S 32 41 17 22 1017.4 - 0.0
28/11:05am 21.9 14.5 6.8 37 7.7 SSE 35 54 19 29 1017.3 - 0.0
28/11:00am 21.7 14.8 7.1 39 7.5 SSE 33 44 18 24 1017.3 - 0.0
28/10:40am 20.7 12.6 7.2 41 6.9 S 39 57 21 31 1017.4 - 0.0
28/10:30am 20.8 12.5 7.6 42 6.8 SSE 41 56 22 30 1017.5 - 0.0
28/10:00am 20.9 13.6 8.7 45 6.4 S 37 52 20 28 1017.5 - 0.0
28/09:32am 20.9 14.8 9.7 48 6.0 S 32 50 17 27 1017.2 - 0.0
28/09:00am 19.6 13.5 9.9 53 5.2 S 32 44 17 24 1016.7 1016.7 4.8
28/08:46am 19.3 13.4 10.4 56 4.8 S 32 50 17 27 1016.6 - 4.8
28/08:30am 18.3 12.8 10.5 60 4.2 S 30 39 16 21 1016.5 - 4.8
28/08:00am 17.5 14.1 11.2 66 3.4 SSW 20 28 11 15 1016.3 - 4.8
28/07:30am 16.2 13.5 11.6 74 2.5 SSW 17 22 9 12 1015.9 - 4.8
28/07:00am 14.9 12.8 11.1 78 2.0 SW 13 17 7 9 1015.7 - 4.8
28/06:30am 14.6 12.6 11.4 81 1.7 SW 13 17 7 9 1015.7 - 4.8
28/06:00am 13.8 12.5 11.2 84 1.4 SW 9 11 5 6 1015.3 1015.3 4.8
28/05:30am 13.4 12.0 10.9 85 1.3 SW 9 13 5 7 1014.9 - 4.8
28/05:00am 13.7 11.2 11.0 84 1.4 SW 15 20 8 11 1014.6 - 4.8
28/04:30am 13.1 11.1 11.6 91 0.8 SW 13 17 7 9 1014.3 - 4.8
28/04:00am 13.0 11.4 11.5 91 0.8 WSW 11 15 6 8 1014.2 - 4.8
28/03:30am 11.7 10.8 10.5 92 0.6 S 6 7 3 4 1014.4 - 4.8
28/03:00am 10.9 8.5 9.9 93 0.5 NW 13 13 7 7 1014.4 1014.4 4.6
28/02:30am 11.5 11.1 9.9 90 0.8 WSW 2 7 1 4 1014.6 - 4.6
28/02:00am 10.5 8.3 9.5 93 0.5 WNW 11 13 6 7 1014.8 - 4.6
28/01:30am 10.2 8.3 9.0 92 0.6 NW 9 11 5 6 1014.7 - 4.6
28/01:00am 10.9 9.0 8.9 87 1.0 NNW 9 11 5 6 1014.6 - 4.6
28/12:30am 11.6 9.4 9.4 86 1.1 WNW 11 13 6 7 1014.6 - 4.6
28/12:00am 12.2 10.3 9.0 81 1.6 W 9 13 5 7 1014.8 1014.8 4.6
 
Date/Time
EST
Temp
°C
App
Temp
°C
Dew
Point
Rel
Hum
%
Delta-T
°C
Wind Press
QNH
hPa
Press
MSL
hPa
Rain
since 9 am
mm
Dir
 
Spd
km/h
Gust
km/h
Spd
kts
Gust
kts
27/11:30pm 12.2 10.9 9.8 85 1.2 WNW 7 9 4 5 1014.8 - 4.6
27/11:00pm 11.4 11.4 9.8 90 0.8 CALM 0 0 0 0 1015.0 - 4.6
27/10:30pm 10.7 9.3 8.9 89 0.9 SSW 6 7 3 4 1015.1 - 4.6
27/10:00pm 12.2 10.6 8.6 78 1.8 SW 7 9 4 5 1014.5 - 4.6
27/09:30pm 11.4 9.0 8.8 84 1.3 W 11 17 6 9 1014.5 - 4.6
27/09:00pm 11.0 10.3 8.6 85 1.2 N 2 7 1 4 1014.9 - 4.6
27/08:30pm 11.7 9.1 9.5 86 1.1 W 13 15 7 8 1014.7 - 4.6
27/08:00pm 11.7 9.3 9.9 89 0.9 W 13 15 7 8 1014.7 - 4.6
27/07:30pm 11.9 9.5 9.9 87 1.0 NW 13 15 7 8 1015.0 - 4.6
27/07:00pm 13.1 10.5 10.6 85 1.3 NW 15 17 8 9 1015.1 - 4.6
27/06:30pm 13.4 11.2 10.9 85 1.3 W 13 17 7 9 1014.8 - 4.6
27/06:00pm 14.6 10.9 9.3 70 2.7 SSW 19 22 10 12 1014.6 1014.6 4.6
27/05:30pm 13.7 11.2 11.0 84 1.4 W 15 20 8 11 1014.8 - 4.4
27/05:00pm 13.7 11.2 11.0 84 1.4 WSW 15 22 8 12 1015.0 - 4.2
27/04:30pm 13.4 9.6 11.3 87 1.1 W 22 30 12 16 1014.7 - 3.6
27/04:00pm 13.5 8.8 10.8 84 1.4 W 26 35 14 19 1014.2 - 2.2
27/03:30pm 13.3 7.4 10.6 84 1.4 W 32 44 17 24 1014.0 - 0.8
27/03:00pm 13.8 7.8 10.1 78 1.9 WNW 32 39 17 21 1013.6 1013.6 0.2
27/02:59pm 13.7 7.7 10.2 79 1.8 WNW 32 39 17 21 1013.6 - 0.2
27/02:35pm 15.6 8.6 9.8 68 3.0 WSW 37 52 20 28 1013.4 - 0.0
27/02:30pm 18.9 14.7 9.9 56 4.8 S 22 30 12 16 1012.9 - 0.0
27/02:00pm 21.0 16.0 7.9 43 6.8 S 24 30 13 16 1012.8 - 0.0
27/01:30pm 21.3 17.1 8.1 42 6.9 SSE 20 26 11 14 1013.0 - 0.0
27/01:00pm 22.5 19.1 5.9 34 8.4 SW 13 20 7 11 1013.3 - 0.0
27/12:30pm 23.1 19.8 7.9 37 8.0 SSW 15 22 8 12 1013.9 - 0.0

Other Formats:

Comma delimited format used in spreadsheet applications
http://www.bom.gov.au/fwo/IDQ60801/IDQ60801.94568.axf

JavaScript Object Notation format (JSON) in row-major order
http://www.bom.gov.au/fwo/IDQ60801/IDQ60801.94568.json